Forside
METAR-TAF:

METAR-TAF

Lufthavne :

Vojens Lufthavn

Vojens, Danmark

Breddekreds: 55-14N, længdekreds: 009-16E, højde: 43 m

Aktuelle vejr

Denne rapport blev lavet for 49 minutter siden, kl. 23:50 UTC
Vind 5 kt fra vestnordvest
Temperatur 6°C
Fugtighed 100%
Tryk 1029 hPa
Sigt: 3000 m
Brudte skyer i en højde af 400 ft
Brudte skyer i en højde af 1200 ft
let finregn, dis

METAR: EKSP 222350Z 29005KT 3000 -DZ BR BKN004 BKN012 06/06 Q1029

Tid: 01:39 (00:39 UTC)

Vejrudsigter

Denne rapport blev lavet for 1 time og 31 minutter siden, kl. 23:08 UTC
Foreløbig gælder fra 23 på 00 UTC til 23 på 24 UTC
Vind 8 kt fra vest
Sigt: 8000 m
Spredte skyer i en højde af 800 ft
Brudte skyer i en højde af 1200 ft
Midlertidig
fra 23 på 00 UTC til 23 på 24 UTC
Sigt: 2500 m
Brudte skyer i en højde af 300 ft
let finregn, dis

TAF: EKSP 222308Z 2300/2324 28008KT 8000 SCT008 BKN012 TEMPO 2300/2324 2500 -DZ BR BKN003

Vejrobservationer og prognoser fra mere end 4000 lufthavne (METAR og TAF).

De gule og røde prikker repræsenterer de meteorologiske stationer.

Flyt musen over at se navnet på stationen.

Så klik over at se vejr observationer og prognoser.

At skifte det kort: Klik på de grønne knapper med et sort kors for at zoome ind; på den grønne knap med en bindestreg for at zoome ud; eller på de grønne pile for tilstødende kort.


METAR-TAF: